createdAt,value
2018-10-19T00:02:16.136Z,21.30
2018-10-19T00:05:28.299Z,18.00
2018-10-19T00:08:40.306Z,23.50
2018-10-19T00:11:51.936Z,22.32
2018-10-19T00:15:03.955Z,19.12
2018-10-19T00:18:15.941Z,20.12
2018-10-19T00:21:28.156Z,19.30
2018-10-19T00:24:40.207Z,18.20
2018-10-19T00:27:51.540Z,21.10
2018-10-19T00:31:04.572Z,20.68
2018-10-19T00:34:16.736Z,17.85
2018-10-19T00:37:28.815Z,17.77
2018-10-19T00:40:40.923Z,20.02
2018-10-19T00:43:53.114Z,15.85
2018-10-19T00:47:04.776Z,18.65
2018-10-19T00:50:17.107Z,19.67
2018-10-19T00:53:29.340Z,17.07
2018-10-19T00:56:41.207Z,17.25
2018-10-19T00:59:53.129Z,16.80
2018-10-19T01:03:04.583Z,16.37
2018-10-19T01:06:15.842Z,14.68
2018-10-19T01:09:27.953Z,15.95
2018-10-19T01:12:39.748Z,14.83
2018-10-19T01:15:51.166Z,14.87
2018-10-19T01:19:02.696Z,15.58
2018-10-19T01:22:13.979Z,11.20
2018-10-19T01:25:25.231Z,12.60
2018-10-19T01:28:37.255Z,13.05
2018-10-19T01:31:49.295Z,8.55
2018-10-19T01:35:00.876Z,7.12
2018-10-19T01:38:12.765Z,4.90
2018-10-19T01:41:23.946Z,5.17
2018-10-19T01:44:36.015Z,6.00
2018-10-19T01:47:47.157Z,6.10
2018-10-19T01:50:59.447Z,6.70
2018-10-19T01:54:10.699Z,5.60
2018-10-19T01:57:23.512Z,7.35
2018-10-19T02:00:34.803Z,6.78
2018-10-19T02:03:46.856Z,5.45
2018-10-19T02:06:58.893Z,6.12
2018-10-19T02:13:25.355Z,6.25
2018-10-19T02:16:36.742Z,4.50
2018-10-19T02:19:48.391Z,4.65
2018-10-19T02:23:00.157Z,5.50
2018-10-19T02:26:12.095Z,5.12
2018-10-19T02:29:23.742Z,5.70
2018-10-19T02:32:36.169Z,5.33
2018-10-19T02:35:47.528Z,5.45
2018-10-19T02:38:59.134Z,6.50
2018-10-19T02:42:11.057Z,5.83
2018-10-19T02:45:23.076Z,6.40
2018-10-19T02:48:34.702Z,6.15
2018-10-19T02:51:46.336Z,6.58
2018-10-19T02:54:58.576Z,7.35
2018-10-19T02:58:10.315Z,5.58
2018-10-19T03:01:22.177Z,6.12
2018-10-19T03:04:34.210Z,6.33
2018-10-19T03:07:45.996Z,5.50
2018-10-19T03:10:57.969Z,5.47
2018-10-19T03:14:09.505Z,6.45
2018-10-19T03:17:21.117Z,8.50
2018-10-19T03:20:32.933Z,8.65
2018-10-19T03:23:44.503Z,10.03
2018-10-19T03:26:56.526Z,11.78
2018-10-19T03:30:09.173Z,15.20
2018-10-19T03:33:20.913Z,17.57
2018-10-19T03:36:33.197Z,16.42
2018-10-19T03:39:45.129Z,13.90
2018-10-19T03:42:56.476Z,16.17
2018-10-19T03:46:08.434Z,22.55
2018-10-19T03:49:20.237Z,17.10
2018-10-19T03:52:32.173Z,16.45
2018-10-19T03:55:43.560Z,22.20
2018-10-19T03:58:55.758Z,26.77
2018-10-19T04:02:07.339Z,15.48
2018-10-19T04:05:21.428Z,14.98
2018-10-19T04:08:33.029Z,19.73
2018-10-19T04:11:45.192Z,16.17
2018-10-19T04:14:56.474Z,19.65
2018-10-19T04:18:08.354Z,21.30
2018-10-19T04:21:20.265Z,20.50
2018-10-19T04:24:31.983Z,20.90
2018-10-19T04:27:43.750Z,22.48
2018-10-19T04:30:55.286Z,19.07
2018-10-19T04:34:06.941Z,18.57
2018-10-19T04:37:18.769Z,19.50
2018-10-19T04:40:30.828Z,23.65
2018-10-19T04:43:42.735Z,15.50
2018-10-19T04:46:54.873Z,17.98
2018-10-19T04:50:06.912Z,22.85
2018-10-19T04:53:18.083Z,20.12
2018-10-19T04:56:30.097Z,23.02
2018-10-19T04:59:42.513Z,24.35
2018-10-19T05:02:53.652Z,26.77
2018-10-19T05:06:06.305Z,19.85
2018-10-19T05:09:17.815Z,18.30
2018-10-19T05:12:29.860Z,16.05
2018-10-19T05:15:41.493Z,20.97
2018-10-19T05:18:53.235Z,16.10
2018-10-19T05:22:06.034Z,19.95
2018-10-19T05:25:17.328Z,24.32
2018-10-19T05:28:29.054Z,22.52
2018-10-19T05:31:41.103Z,23.10
2018-10-19T05:34:53.667Z,28.67
2018-10-19T05:38:06.102Z,22.75
2018-10-19T05:41:17.644Z,20.55
2018-10-19T05:44:29.240Z,32.17
2018-10-19T05:47:41.480Z,23.35
2018-10-19T05:50:53.320Z,27.65
2018-10-19T05:54:05.896Z,30.17
2018-10-19T05:57:17.081Z,22.45
2018-10-19T06:00:29.200Z,30.02
2018-10-19T06:03:40.888Z,22.93
2018-10-19T06:06:52.481Z,34.50
2018-10-19T06:10:04.058Z,25.37
2018-10-19T06:13:15.680Z,28.47
2018-10-19T06:16:27.548Z,27.60
2018-10-19T06:19:39.264Z,19.52
2018-10-19T06:22:51.036Z,21.45
2018-10-19T06:26:02.640Z,26.57
2018-10-19T06:29:15.375Z,26.77
2018-10-19T06:32:26.806Z,29.18
2018-10-19T06:35:38.441Z,24.70
2018-10-19T06:38:50.717Z,21.80
2018-10-19T06:42:02.440Z,23.80
2018-10-19T06:45:13.885Z,26.65
2018-10-19T06:48:25.783Z,21.80
2018-10-19T06:51:37.610Z,29.50
2018-10-19T06:54:49.538Z,30.88
2018-10-19T06:58:01.307Z,25.82
2018-10-19T07:01:13.410Z,22.60
2018-10-19T07:04:25.209Z,29.57
2018-10-19T07:07:37.391Z,28.27
2018-10-19T07:10:49.404Z,29.72
2018-10-19T07:14:00.697Z,30.52
2018-10-19T07:17:12.847Z,34.45
2018-10-19T07:20:24.412Z,30.50
2018-10-19T07:23:36.080Z,27.55
2018-10-19T07:26:48.138Z,29.05
2018-10-19T07:30:00.339Z,25.82
2018-10-19T07:33:11.853Z,28.40
2018-10-19T07:36:23.956Z,29.95
2018-10-19T07:39:35.677Z,28.70
2018-10-19T07:42:47.299Z,27.48
2018-10-19T07:45:59.346Z,27.93
2018-10-19T07:49:11.599Z,21.70
2018-10-19T07:52:23.720Z,20.40
2018-10-19T07:55:35.671Z,25.77
2018-10-19T07:58:47.580Z,24.50
2018-10-19T08:01:59.453Z,23.18
2018-10-19T08:05:12.416Z,23.20
2018-10-19T08:08:24.663Z,20.90
2018-10-19T08:11:36.651Z,23.50
2018-10-19T08:14:48.445Z,24.10
2018-10-19T08:18:00.284Z,17.77
2018-10-19T08:21:12.292Z,25.50
2018-10-19T08:24:23.869Z,23.10
2018-10-19T08:27:35.661Z,21.75
2018-10-19T08:30:47.146Z,22.65
2018-10-19T08:33:58.783Z,19.67
2018-10-19T08:37:10.889Z,22.07
2018-10-19T08:40:22.516Z,16.07
2018-10-19T08:43:33.744Z,21.65
2018-10-19T08:46:46.097Z,20.10
2018-10-19T08:49:57.689Z,19.67
2018-10-19T08:53:09.792Z,26.27
2018-10-19T08:56:21.627Z,19.12
2018-10-19T08:59:33.600Z,19.73
2018-10-19T09:02:45.535Z,16.82
2018-10-19T09:05:57.405Z,17.05
2018-10-19T09:09:11.973Z,15.95
2018-10-19T09:12:23.522Z,18.82
2018-10-19T09:15:35.628Z,16.67
2018-10-19T09:18:47.704Z,16.45
2018-10-19T09:21:59.114Z,16.32
2018-10-19T09:25:12.483Z,17.80
2018-10-19T09:28:24.244Z,15.48
2018-10-19T09:31:36.173Z,16.60
2018-10-19T09:34:48.425Z,13.98
2018-10-19T09:38:00.108Z,12.40
2018-10-19T09:41:12.165Z,16.30
2018-10-19T09:44:23.921Z,16.37
2018-10-19T09:47:35.793Z,15.75
2018-10-19T09:50:47.685Z,15.28
2018-10-19T09:53:59.550Z,15.60
2018-10-19T09:57:11.406Z,16.82
2018-10-19T10:00:28.081Z,13.48
2018-10-19T10:03:39.744Z,12.07
2018-10-19T10:06:51.187Z,13.68
2018-10-19T10:13:46.011Z,20.35
2018-10-19T10:16:58.108Z,16.82
2018-10-19T10:20:18.178Z,17.52
2018-10-19T10:23:29.962Z,13.85
2018-10-19T10:26:41.191Z,14.18
2018-10-19T10:29:53.142Z,18.65
2018-10-19T10:33:04.888Z,14.28
2018-10-19T10:36:17.289Z,16.27
2018-10-19T10:39:28.555Z,20.25
2018-10-19T10:42:41.098Z,21.25
2018-10-19T10:45:52.701Z,16.90
2018-10-19T10:49:04.288Z,20.80
2018-10-19T10:52:16.084Z,19.62
2018-10-19T10:55:27.842Z,16.10
2018-10-19T10:58:39.491Z,15.60
2018-10-19T11:01:51.593Z,19.12
2018-10-19T11:05:03.422Z,15.15
2018-10-19T11:08:14.852Z,15.28
2018-10-19T11:11:26.822Z,17.00
2018-10-19T11:14:38.897Z,16.45
2018-10-19T11:17:50.772Z,16.52
2018-10-19T11:21:02.865Z,17.70
2018-10-19T11:24:14.594Z,15.78
2018-10-19T11:27:26.312Z,16.82
2018-10-19T11:30:38.282Z,14.87
2018-10-19T11:33:50.078Z,15.40
2018-10-19T11:37:01.916Z,11.22
2018-10-19T11:40:38.663Z,16.27
2018-10-19T11:43:49.944Z,14.23
2018-10-19T11:47:01.962Z,14.70
2018-10-19T11:50:13.747Z,18.20
2018-10-19T11:53:25.668Z,13.85
2018-10-19T11:56:38.671Z,12.10
2018-10-19T11:59:50.268Z,13.88
2018-10-19T12:03:02.183Z,12.55
2018-10-19T12:06:14.334Z,17.12
2018-10-19T12:09:25.680Z,15.13
2018-10-19T12:12:38.510Z,16.90
2018-10-19T12:15:50.787Z,16.35
2018-10-19T12:19:02.005Z,13.03
2018-10-19T12:22:13.910Z,17.45
2018-10-19T12:25:25.803Z,14.47
2018-10-19T12:28:37.730Z,15.95
2018-10-19T12:31:49.771Z,16.32
2018-10-19T12:35:02.057Z,19.25
2018-10-19T12:38:13.426Z,16.17
2018-10-19T12:41:25.060Z,15.70
2018-10-19T12:44:36.855Z,13.55
2018-10-19T12:47:48.716Z,14.10
2018-10-19T12:51:00.286Z,17.67
2018-10-19T12:54:12.601Z,20.68
2018-10-19T12:57:24.261Z,17.92
2018-10-19T13:00:37.896Z,17.35
2018-10-19T13:03:49.880Z,15.35
2018-10-19T13:07:03.666Z,22.73
2018-10-19T13:10:15.363Z,15.75
2018-10-19T13:13:27.101Z,16.82
2018-10-19T13:16:38.892Z,15.90
2018-10-19T13:19:51.059Z,18.30
2018-10-19T13:23:02.689Z,16.25
2018-10-19T13:26:14.294Z,16.87
2018-10-19T13:29:26.255Z,18.67
2018-10-19T13:32:37.983Z,14.35
2018-10-19T13:35:49.885Z,18.67
2018-10-19T13:39:01.782Z,17.87
2018-10-19T13:42:13.535Z,20.25
2018-10-19T13:45:25.641Z,18.30
2018-10-19T13:48:37.743Z,20.00
2018-10-19T13:51:50.803Z,15.58
2018-10-19T13:55:01.826Z,17.87
2018-10-19T13:58:13.474Z,14.43
2018-10-19T14:01:25.210Z,14.95
2018-10-19T14:04:36.553Z,15.35
2018-10-19T14:07:48.624Z,12.90
2018-10-19T14:11:00.365Z,15.18
2018-10-19T14:14:11.935Z,13.60
2018-10-19T14:17:24.039Z,12.13
2018-10-19T14:20:35.747Z,16.67
2018-10-19T14:23:47.528Z,15.38
2018-10-19T14:26:59.137Z,13.08
2018-10-19T14:30:13.372Z,15.72
2018-10-19T14:33:25.009Z,16.37
2018-10-19T14:36:37.767Z,14.73
2018-10-19T14:39:50.461Z,11.53
2018-10-19T14:43:02.480Z,12.70
2018-10-19T14:46:14.564Z,12.28
2018-10-19T14:49:26.563Z,14.15
2018-10-19T14:52:38.430Z,12.78
2018-10-19T14:55:50.093Z,13.88
2018-10-19T14:59:01.828Z,18.30
2018-10-19T15:02:15.197Z,17.77
2018-10-19T15:05:27.135Z,16.40
2018-10-19T15:08:39.369Z,17.50
2018-10-19T15:11:51.163Z,17.32
2018-10-19T15:15:02.538Z,18.20
2018-10-19T15:18:14.308Z,21.45
2018-10-19T15:21:26.101Z,17.35
2018-10-19T15:24:37.243Z,21.15
2018-10-19T15:27:49.296Z,19.10
2018-10-19T15:31:01.300Z,20.10
2018-10-19T15:34:13.180Z,16.30
2018-10-19T15:37:25.034Z,15.05
2018-10-19T15:40:37.476Z,20.32
2018-10-19T15:43:48.783Z,15.53
2018-10-19T15:47:03.368Z,18.05
2018-10-19T15:50:15.035Z,21.48
2018-10-19T15:53:28.102Z,18.67
2018-10-19T15:56:39.641Z,20.62
2018-10-19T15:59:51.666Z,18.80
2018-10-19T16:03:03.140Z,23.05
2018-10-19T16:06:14.879Z,20.30
2018-10-19T16:09:27.019Z,19.92
2018-10-19T16:12:38.655Z,19.48
2018-10-19T16:15:50.247Z,18.90
2018-10-19T16:19:03.655Z,20.00
2018-10-19T16:22:15.414Z,20.08
2018-10-19T16:25:27.000Z,19.70
2018-10-19T16:28:39.071Z,20.37
2018-10-19T16:31:51.500Z,21.60
2018-10-19T16:35:04.196Z,20.45
2018-10-19T16:38:16.674Z,23.87
2018-10-19T16:41:28.457Z,21.30
2018-10-19T16:44:40.505Z,22.32
2018-10-19T16:47:51.885Z,19.80
2018-10-19T16:51:04.155Z,21.97
2018-10-19T16:54:16.663Z,20.08
2018-10-19T16:57:28.488Z,23.12
2018-10-19T17:00:40.909Z,20.88
2018-10-19T17:03:52.643Z,22.25
2018-10-19T17:07:05.329Z,23.65
2018-10-19T17:10:18.920Z,19.32
2018-10-19T17:13:39.795Z,23.42
2018-10-19T17:16:52.453Z,22.73
2018-10-19T17:20:07.355Z,23.62
2018-10-19T17:23:19.876Z,21.97
2018-10-19T17:26:32.231Z,24.02
2018-10-19T17:29:44.043Z,22.45
2018-10-19T17:32:56.217Z,20.60
2018-10-19T17:36:07.735Z,22.77
2018-10-19T17:39:19.908Z,17.73
2018-10-19T17:42:31.763Z,19.50
2018-10-19T17:45:44.001Z,21.35
2018-10-19T17:48:56.824Z,20.43
2018-10-19T17:52:08.619Z,22.13
2018-10-19T17:55:21.438Z,23.32
2018-10-19T17:58:32.983Z,18.70
2018-10-19T18:01:44.627Z,21.82
2018-10-19T18:04:56.468Z,22.67
2018-10-19T18:08:08.132Z,24.82
2018-10-19T18:11:20.916Z,21.45
2018-10-19T18:14:32.691Z,23.65
2018-10-19T18:17:44.195Z,22.15
2018-10-19T18:20:56.419Z,22.17
2018-10-19T18:24:07.913Z,21.50
2018-10-19T18:27:20.193Z,20.40
2018-10-19T18:30:31.629Z,19.15
2018-10-19T18:33:43.507Z,19.92
2018-10-19T18:37:08.338Z,20.80
2018-10-19T18:40:19.829Z,21.27
2018-10-19T18:43:32.000Z,20.70
2018-10-19T18:46:43.525Z,22.00
2018-10-19T18:49:55.593Z,24.18
2018-10-19T18:53:07.387Z,23.85
2018-10-19T18:56:19.175Z,20.82
2018-10-19T18:59:31.166Z,20.90
2018-10-19T19:02:44.843Z,19.07
2018-10-19T19:05:57.753Z,20.32
2018-10-19T19:09:12.546Z,21.20
2018-10-19T19:12:24.733Z,24.23
2018-10-19T19:15:36.268Z,23.55
2018-10-19T19:18:49.381Z,22.87
2018-10-19T19:22:00.745Z,21.73
2018-10-19T19:25:17.770Z,26.57
2018-10-19T19:28:29.579Z,19.50
2018-10-19T19:31:41.484Z,19.75
2018-10-19T19:34:53.481Z,24.60
2018-10-19T19:38:05.603Z,21.45
2018-10-19T19:41:22.709Z,17.77
2018-10-19T19:44:34.445Z,17.57
2018-10-19T19:47:51.325Z,20.37
2018-10-19T19:51:03.084Z,22.62
2018-10-19T19:54:14.573Z,19.60
2018-10-19T19:57:26.648Z,20.43
2018-10-19T20:00:37.968Z,22.90
2018-10-19T20:03:49.438Z,25.25
2018-10-19T20:07:01.125Z,22.70
2018-10-19T20:10:12.256Z,23.60
2018-10-19T20:13:24.154Z,22.85
2018-10-19T20:16:49.321Z,23.45
2018-10-19T20:20:00.890Z,24.18
2018-10-19T20:23:13.352Z,21.02
2018-10-19T20:30:16.174Z,23.35
2018-10-19T20:33:33.124Z,25.60
2018-10-19T20:36:45.871Z,21.93
2018-10-19T20:39:57.287Z,21.52
2018-10-19T20:43:10.643Z,24.37
2018-10-19T20:46:22.815Z,19.30
2018-10-19T20:49:40.033Z,23.60
2018-10-19T20:52:52.211Z,22.67
2018-10-19T20:56:03.859Z,24.07
2018-10-19T20:59:15.692Z,21.95
2018-10-19T21:02:27.675Z,23.70
2018-10-19T21:05:39.319Z,27.07
2018-10-19T21:08:51.288Z,23.60
2018-10-19T21:12:03.296Z,22.95
2018-10-19T21:18:58.061Z,28.07
2018-10-19T21:22:09.884Z,22.20
2018-10-19T21:25:21.766Z,21.40
2018-10-19T21:28:33.461Z,19.62
2018-10-19T21:31:45.260Z,18.30
2018-10-19T21:34:56.619Z,16.97
2018-10-19T21:38:08.440Z,17.75
2018-10-19T21:41:20.213Z,19.20
2018-10-19T21:44:31.520Z,23.42
2018-10-19T21:47:43.194Z,20.10
2018-10-19T21:50:54.893Z,20.77
2018-10-19T21:54:06.905Z,20.27
2018-10-19T21:57:18.934Z,17.52
2018-10-19T22:00:30.882Z,17.77
2018-10-19T22:03:42.903Z,17.52
2018-10-19T22:06:54.583Z,17.90
2018-10-19T22:10:06.738Z,19.20
2018-10-19T22:13:18.419Z,21.48
2018-10-19T22:16:30.867Z,19.73
2018-10-19T22:19:42.106Z,21.68
2018-10-19T22:22:53.953Z,18.90
2018-10-19T22:26:06.556Z,24.98
2018-10-19T22:29:18.006Z,18.20
2018-10-19T22:32:29.840Z,21.87
2018-10-19T22:35:41.661Z,22.93
2018-10-19T22:38:53.709Z,20.25
2018-10-19T22:42:05.454Z,18.40
2018-10-19T22:45:17.148Z,21.02
2018-10-19T22:48:28.211Z,20.15
2018-10-19T22:51:40.314Z,17.60
2018-10-19T22:54:52.883Z,16.65
2018-10-19T22:58:04.330Z,19.20
2018-10-19T23:01:16.032Z,21.05
2018-10-19T23:04:27.829Z,17.07
2018-10-19T23:07:39.775Z,18.85
2018-10-19T23:10:51.037Z,19.80
2018-10-19T23:14:02.982Z,18.23
2018-10-19T23:17:15.326Z,19.95
2018-10-19T23:20:27.054Z,20.55
2018-10-19T23:23:38.664Z,18.67
2018-10-19T23:26:50.142Z,19.17
2018-10-19T23:30:01.205Z,22.87
2018-10-19T23:33:13.176Z,18.92
2018-10-19T23:36:25.219Z,19.73
2018-10-19T23:39:37.513Z,18.67
2018-10-19T23:42:50.433Z,21.05
2018-10-19T23:46:08.260Z,17.60
2018-10-19T23:49:20.069Z,21.87
2018-10-19T23:52:31.916Z,16.50
2018-10-19T23:55:43.758Z,18.98
2018-10-19T23:58:55.772Z,19.20
